createdAt,value
2018-12-08T00:02:00.000Z,5.5
2018-12-08T00:07:00.000Z,5.5
2018-12-08T00:12:00.000Z,5.5
2018-12-08T00:17:00.000Z,5.5
2018-12-08T00:22:00.000Z,5.6
2018-12-08T00:27:00.000Z,5.7
2018-12-08T00:32:00.000Z,5.8
2018-12-08T00:37:00.000Z,5.7
2018-12-08T00:42:00.000Z,5.7
2018-12-08T00:47:00.000Z,5.6
2018-12-08T00:52:00.000Z,5.5
2018-12-08T00:57:00.000Z,5.4
2018-12-08T01:02:00.000Z,5.4
2018-12-08T01:07:00.000Z,5.3
2018-12-08T01:12:00.000Z,5.3
2018-12-08T01:17:00.000Z,5.2
2018-12-08T01:22:00.000Z,5.2
2018-12-08T01:27:00.000Z,5.1
2018-12-08T01:32:00.000Z,5.0
2018-12-08T01:37:00.000Z,5.0
2018-12-08T01:42:00.000Z,5.0
2018-12-08T01:47:00.000Z,5.0
2018-12-08T01:52:00.000Z,5.0
2018-12-08T01:57:00.000Z,5.0
2018-12-08T02:02:00.000Z,5.0
2018-12-08T02:07:00.000Z,5.0
2018-12-08T02:12:00.000Z,5.0
2018-12-08T02:17:00.000Z,4.9
2018-12-08T02:22:00.000Z,4.9
2018-12-08T02:27:00.000Z,4.8
2018-12-08T02:32:00.000Z,4.8
2018-12-08T02:37:00.000Z,4.8
2018-12-08T02:42:00.000Z,4.9
2018-12-08T02:47:00.000Z,4.9
2018-12-08T02:52:00.000Z,5.0
2018-12-08T02:57:00.000Z,5.0
2018-12-08T03:02:00.000Z,5.1
2018-12-08T03:07:00.000Z,5.2
2018-12-08T03:12:00.000Z,5.2
2018-12-08T03:17:00.000Z,5.2
2018-12-08T03:22:00.000Z,5.3
2018-12-08T03:28:00.000Z,5.4
2018-12-08T03:33:00.000Z,5.9
2018-12-08T03:38:00.000Z,6.7
2018-12-08T03:43:00.000Z,7.4
2018-12-08T03:48:00.000Z,8.0
2018-12-08T03:53:00.000Z,8.4
2018-12-08T03:58:00.000Z,8.6
2018-12-08T04:03:00.000Z,8.8
2018-12-08T04:08:00.000Z,8.8
2018-12-08T04:13:00.000Z,8.9
2018-12-08T04:18:00.000Z,8.9
2018-12-08T04:23:00.000Z,8.9
2018-12-08T04:28:00.000Z,8.9
2018-12-08T04:33:00.000Z,8.9
2018-12-08T04:38:00.000Z,9.0
2018-12-08T04:43:00.000Z,9.0
2018-12-08T04:48:00.000Z,8.9
2018-12-08T04:53:00.000Z,8.9
2018-12-08T04:58:00.000Z,8.9
2018-12-08T05:03:00.000Z,8.8
2018-12-08T05:08:00.000Z,8.8
2018-12-08T05:13:00.000Z,8.8
2018-12-08T05:18:00.000Z,8.8
2018-12-08T05:23:00.000Z,8.7
2018-12-08T05:28:00.000Z,8.7
2018-12-08T05:33:00.000Z,8.7
2018-12-08T05:38:00.000Z,8.6
2018-12-08T05:43:00.000Z,8.6
2018-12-08T05:48:00.000Z,8.6
2018-12-08T05:53:00.000Z,8.5
2018-12-08T05:58:00.000Z,8.5
2018-12-08T06:03:00.000Z,8.4
2018-12-08T06:08:00.000Z,8.4
2018-12-08T06:13:00.000Z,8.3
2018-12-08T06:18:00.000Z,8.3
2018-12-08T06:23:00.000Z,8.2
2018-12-08T06:28:00.000Z,8.2
2018-12-08T06:33:00.000Z,8.1
2018-12-08T06:38:00.000Z,8.1
2018-12-08T06:43:00.000Z,8.0
2018-12-08T06:48:00.000Z,8.0
2018-12-08T06:53:00.000Z,8.0
2018-12-08T06:58:00.000Z,7.9
2018-12-08T07:03:00.000Z,7.9
2018-12-08T07:08:00.000Z,7.9
2018-12-08T07:13:00.000Z,7.9
2018-12-08T07:18:00.000Z,7.9
2018-12-08T07:23:00.000Z,7.9
2018-12-08T07:28:00.000Z,7.9
2018-12-08T07:38:00.000Z,7.9
2018-12-08T07:43:00.000Z,7.8
2018-12-08T07:48:00.000Z,7.8
2018-12-08T07:53:00.000Z,7.7
2018-12-08T07:58:00.000Z,7.7
2018-12-08T08:04:00.000Z,7.6
2018-12-08T08:09:00.000Z,7.6
2018-12-08T08:14:00.000Z,7.6
2018-12-08T08:19:00.000Z,7.5
2018-12-08T08:24:00.000Z,7.5
2018-12-08T08:29:00.000Z,7.5
2018-12-08T08:34:00.000Z,7.5
2018-12-08T08:39:00.000Z,7.4
2018-12-08T08:44:00.000Z,7.5
2018-12-08T08:49:00.000Z,7.5
2018-12-08T08:54:00.000Z,7.5
2018-12-08T08:59:00.000Z,7.6
2018-12-08T09:04:00.000Z,7.6
2018-12-08T09:09:00.000Z,7.6
2018-12-08T09:14:00.000Z,7.6
2018-12-08T09:19:00.000Z,7.5
2018-12-08T09:24:00.000Z,7.5
2018-12-08T09:29:00.000Z,7.5
2018-12-08T09:34:00.000Z,7.4
2018-12-08T09:39:00.000Z,7.4
2018-12-08T09:44:00.000Z,7.4
2018-12-08T09:49:00.000Z,7.5
2018-12-08T09:54:00.000Z,7.5
2018-12-08T09:59:00.000Z,7.5
2018-12-08T10:04:00.000Z,7.5
2018-12-08T10:09:00.000Z,7.5
2018-12-08T10:14:00.000Z,7.5
2018-12-08T10:19:00.000Z,7.6
2018-12-08T10:24:00.000Z,7.6
2018-12-08T10:29:00.000Z,7.6
2018-12-08T10:34:00.000Z,7.6
2018-12-08T10:39:00.000Z,7.6
2018-12-08T10:44:00.000Z,7.6
2018-12-08T10:49:00.000Z,7.6
2018-12-08T10:54:00.000Z,7.6
2018-12-08T10:59:00.000Z,7.6
2018-12-08T11:04:00.000Z,7.6
2018-12-08T11:09:00.000Z,7.7
2018-12-08T11:14:00.000Z,7.7
2018-12-08T11:19:00.000Z,7.8
2018-12-08T11:24:00.000Z,7.8
2018-12-08T11:29:00.000Z,7.8
2018-12-08T11:34:00.000Z,7.8
2018-12-08T11:39:00.000Z,7.9
2018-12-08T11:44:00.000Z,8.0
2018-12-08T11:49:00.000Z,8.0
2018-12-08T11:54:00.000Z,8.1
2018-12-08T11:59:00.000Z,8.1
2018-12-08T12:04:00.000Z,8.2
2018-12-08T12:09:00.000Z,8.2
2018-12-08T12:14:00.000Z,8.2
2018-12-08T12:19:00.000Z,8.3
2018-12-08T12:24:00.000Z,8.3
2018-12-08T12:29:00.000Z,8.3
2018-12-08T12:34:00.000Z,8.4
2018-12-08T12:39:00.000Z,8.5
2018-12-08T12:44:00.000Z,8.5
2018-12-08T12:49:00.000Z,8.5
2018-12-08T12:54:00.000Z,8.6
2018-12-08T12:59:00.000Z,8.7
2018-12-08T13:04:00.000Z,8.8
2018-12-08T13:09:00.000Z,8.8
2018-12-08T13:14:00.000Z,8.8
2018-12-08T13:19:00.000Z,8.8
2018-12-08T13:24:00.000Z,8.8
2018-12-08T13:29:00.000Z,8.7
2018-12-08T13:34:00.000Z,8.7
2018-12-08T13:39:00.000Z,8.7
2018-12-08T13:44:00.000Z,8.8
2018-12-08T13:49:00.000Z,8.7
2018-12-08T13:54:00.000Z,8.6
2018-12-08T13:59:00.000Z,8.6
2018-12-08T14:05:00.000Z,8.5
2018-12-08T14:10:00.000Z,8.5
2018-12-08T14:15:00.000Z,8.4
2018-12-08T14:20:00.000Z,8.4
2018-12-08T14:25:00.000Z,8.4
2018-12-08T14:30:00.000Z,8.3
2018-12-08T14:35:00.000Z,8.3
2018-12-08T14:40:00.000Z,8.3
2018-12-08T14:45:00.000Z,8.3
2018-12-08T14:50:00.000Z,8.2
2018-12-08T14:55:00.000Z,8.2
2018-12-08T15:00:00.000Z,8.2
2018-12-08T15:05:00.000Z,8.2
2018-12-08T15:10:00.000Z,8.2
2018-12-08T15:15:00.000Z,8.2
2018-12-08T15:20:00.000Z,8.2
2018-12-08T15:25:00.000Z,8.2
2018-12-08T15:30:00.000Z,8.2
2018-12-08T15:35:00.000Z,8.2
2018-12-08T15:40:00.000Z,8.2
2018-12-08T15:45:00.000Z,8.2
2018-12-08T15:50:00.000Z,8.2
2018-12-08T15:55:00.000Z,8.2
2018-12-08T16:00:00.000Z,8.3
2018-12-08T16:05:00.000Z,8.3
2018-12-08T16:10:00.000Z,8.3
2018-12-08T16:15:00.000Z,8.3
2018-12-08T16:20:00.000Z,8.3
2018-12-08T16:25:00.000Z,8.3
2018-12-08T16:30:00.000Z,8.4
2018-12-08T16:35:00.000Z,8.5
2018-12-08T16:40:00.000Z,8.7
2018-12-08T16:45:00.000Z,8.8
2018-12-08T16:50:00.000Z,8.9
2018-12-08T16:55:00.000Z,9.0
2018-12-08T17:00:00.000Z,9.0
2018-12-08T17:05:00.000Z,9.1
2018-12-08T17:10:00.000Z,9.1
2018-12-08T17:15:00.000Z,9.0
2018-12-08T17:20:00.000Z,9.0
2018-12-08T17:25:00.000Z,9.0
2018-12-08T17:30:00.000Z,9.0
2018-12-08T17:35:00.000Z,9.1
2018-12-08T17:40:00.000Z,9.1
2018-12-08T17:45:00.000Z,9.2
2018-12-08T17:50:00.000Z,9.2
2018-12-08T17:55:00.000Z,9.2
2018-12-08T18:00:00.000Z,9.2
2018-12-08T18:05:00.000Z,9.2
2018-12-08T18:10:00.000Z,9.1
2018-12-08T18:15:00.000Z,9.1
2018-12-08T18:20:00.000Z,9.0
2018-12-08T18:25:00.000Z,9.0
2018-12-08T18:30:00.000Z,8.9
2018-12-08T18:35:00.000Z,8.8
2018-12-08T18:40:00.000Z,8.8
2018-12-08T18:45:00.000Z,8.7
2018-12-08T18:50:00.000Z,8.7
2018-12-08T18:55:00.000Z,8.6
2018-12-08T19:00:00.000Z,8.5
2018-12-08T19:05:00.000Z,8.5
2018-12-08T19:10:00.000Z,8.5
2018-12-08T19:15:00.000Z,8.5
2018-12-08T19:20:00.000Z,8.5
2018-12-08T19:25:00.000Z,8.5
2018-12-08T19:30:00.000Z,8.6
2018-12-08T19:35:00.000Z,8.6
2018-12-08T19:40:00.000Z,8.6
2018-12-08T19:45:00.000Z,8.6
2018-12-08T19:50:00.000Z,8.6
2018-12-08T19:55:00.000Z,8.7
2018-12-08T20:00:00.000Z,8.7
2018-12-08T20:05:00.000Z,8.8
2018-12-08T20:10:00.000Z,8.8
2018-12-08T20:16:00.000Z,8.9
2018-12-08T20:21:00.000Z,8.8
2018-12-08T20:26:00.000Z,8.8
2018-12-08T20:31:00.000Z,8.7
2018-12-08T20:36:00.000Z,8.7
2018-12-08T20:41:00.000Z,8.6
2018-12-08T20:46:00.000Z,8.6
2018-12-08T20:51:00.000Z,8.5
2018-12-08T20:56:00.000Z,8.5
2018-12-08T21:01:00.000Z,8.5
2018-12-08T21:06:00.000Z,8.5
2018-12-08T21:11:00.000Z,8.5
2018-12-08T21:16:00.000Z,8.5
2018-12-08T21:21:00.000Z,8.4
2018-12-08T21:26:00.000Z,8.2
2018-12-08T21:31:00.000Z,8.0
2018-12-08T21:36:00.000Z,7.8
2018-12-08T21:41:00.000Z,7.6
2018-12-08T21:46:00.000Z,7.3
2018-12-08T21:51:00.000Z,7.1
2018-12-08T21:56:00.000Z,6.9
2018-12-08T22:01:00.000Z,6.7
2018-12-08T22:06:00.000Z,6.6
2018-12-08T22:11:00.000Z,6.5
2018-12-08T22:16:00.000Z,6.4
2018-12-08T22:21:00.000Z,6.3
2018-12-08T22:26:00.000Z,6.2
2018-12-08T22:31:00.000Z,6.1
2018-12-08T22:36:00.000Z,6.0
2018-12-08T22:41:00.000Z,6.0
2018-12-08T22:46:00.000Z,6.0
2018-12-08T22:51:00.000Z,5.9
2018-12-08T22:56:00.000Z,5.9
2018-12-08T23:01:00.000Z,5.8
2018-12-08T23:06:00.000Z,5.7
2018-12-08T23:11:00.000Z,5.7
2018-12-08T23:16:00.000Z,5.7
2018-12-08T23:21:00.000Z,5.6
2018-12-08T23:26:00.000Z,5.6
2018-12-08T23:31:00.000Z,5.5
2018-12-08T23:36:00.000Z,5.5
2018-12-08T23:41:00.000Z,5.5
2018-12-08T23:46:00.000Z,5.5
2018-12-08T23:51:00.000Z,5.5
2018-12-08T23:56:00.000Z,5.4
